メインページ
METAR-TAF:

METAR-TAF

空港 :

ウアリ・ブーメディアン空港

アルジェ, アルジェリア

緯度: 36-43N, 経度: 003-15E, 海抜: 25m

現時点の気象観測

当レポートは16分前の11:30(UTC)に作成
西/北西の風 11kt、西から北西の間で変化する
気温 20°C
湿度 56%
気圧 1019 hPa
視程10km以上
高度2600ftの雲はほとんどない
高度20000ftの雲は散在している

METAR: DAAG 141130Z 29011KT 260V320 9999 FEW026 SCT200 20/11 Q1019

時間: 12:46 (11:46 UTC)

予報

当レポートは46分前の11:00(UTC)に作成
予報は14日の 12時(UTC)から 15日の 12時(UTC)まで有効
西の風 12kt
視程10km以上
高度2300ftの雲はほとんどない
高度20000ftの雲は散在している
確率 30% :
14日の 12時(UTC)から 14日の 15時(UTC)まで一時的に
西の風 15kt、最大25ktの突風を伴う
高度2600ftの雲はほとんどない, 塔状積雲.
14日の 16時(UTC)から 14日の 20時(UTC)まで徐々に
変向風 2kt

TAF: DAAG 141100Z 1412/1512 28012KT 9999 FEW023 SCT200 PROB30 TEMPO 1412/1415 28015G25KT FEW026TCU BECMG 1416/1420 VRB02KT

4,000以上の空港の気象観測と天気予報(METAR報とTAF報)

利用可能な観測所は地図上に黄色い丸と赤い丸で示す。

丸の上にカーソルを重ねると観測所名を参照できる。

次にクリックすると気象観測と天気予報を参照できる。

マップの切り替え:黒色「×」印の緑ボタンをクリックして拡大、「-」印の緑ボタンをクリックして縮小、緑色の三角印をクリックして隣りの地図に切り替え


METAR-TAF: